Shingle Springs, California
Current Conditions -  °F | °C
As of 4:35 AM on Monday 24 Nov 2014 (Local Time) from KPVF Reporting Station
Few Clouds Few Clouds  
Wind Chill: 41°   Ceiling: Unl
Heat Index: 46°   Visibility: 10mi
Dew Point: 23°   Wind: 10mph
Humidity: 40%   Direction: 60°ENE
Pressure: 30.32"   Gusts: NA
Location:  38.67°N, 120.94°W
Report Text: KPVF 241235Z AUTO 06009KT 10SM FEW041 08/M05 A3032 RMK AO1
Loading
Personal Weather Stations






























Interactive Weather Map New forecast layout! Learn more

10-Day Weather Forecast

Advertisements
Track Severe Weather on mobile